Time;durP1;ratioP1;P1;durP2;ratioP2;P2;SDS_P1;SDS_P2;PMS_P1;PMS_P2;Temp;Humidity;BMP_temperature;BMP_pressure;BME280_temperature;BME280_humidity;BME280_pressure;Samples;Min_cycle;Max_cycle;Signal;HPM_P1;HPM_P2
2023/08/09 00:00:52;;;;;;;10.07;5.75;;;;;;;14.84;100.00;100116.97;5033585;28;20233;-76
2023/08/09 00:03:19;;;;;;;10.40;5.28;;;;;;;14.87;100.00;100111.44;5040580;28;20033;-75
2023/08/09 00:05:47;;;;;;;7.03;5.63;;;;;;;14.83;100.00;100107.25;5039980;28;20050;-74
2023/08/09 00:08:18;;;;;;;7.95;5.40;;;;;;;14.82;100.00;100110.88;5041918;28;20045;-75
2023/08/09 00:10:48;;;;;;;7.85;5.25;;;;;;;14.80;100.00;100118.13;5035576;28;20037;-74
2023/08/09 00:13:16;;;;;;;10.80;6.20;;;;;;;14.85;100.00;100104.50;5040138;28;20131;-75
2023/08/09 00:15:44;;;;;;;9.23;5.63;;;;;;;14.91;100.00;100114.75;5044267;28;20045;-75
2023/08/09 00:18:14;;;;;;;9.18;5.90;;;;;;;14.92;100.00;100111.13;5044315;28;20544;-74
2023/08/09 00:20:42;;;;;;;;;;;;;;;14.96;100.00;100107.25;5017434;28;20037;-75
2023/08/09 00:23:13;;;;;;;8.52;5.40;;;;;;;14.95;100.00;100105.59;5040383;28;19990;-75
2023/08/09 00:25:43;;;;;;;10.90;5.35;;;;;;;14.89;100.00;100103.34;5013419;28;20136;-76
2023/08/09 00:28:11;;;;;;;9.82;6.10;;;;;;;14.78;100.00;100101.41;5038440;28;20034;-75
2023/08/09 00:30:39;;;;;;;11.88;6.75;;;;;;;14.69;100.00;100094.88;5034938;28;21120;-75
2023/08/09 00:33:07;;;;;;;10.82;6.45;;;;;;;14.65;100.00;100097.88;5057254;28;20053;-75
2023/08/09 00:35:36;;;;;;;9.10;6.72;;;;;;;14.62;100.00;100106.94;5044262;28;20573;-75
2023/08/09 00:38:05;;;;;;;10.00;7.18;;;;;;;14.60;100.00;100097.34;5023873;28;20057;-75
2023/08/09 00:40:33;;;;;;;10.07;6.90;;;;;;;14.54;100.00;100071.97;5036393;28;20041;-74
2023/08/09 00:43:03;;;;;;;9.30;6.50;;;;;;;14.61;100.00;100080.41;5038929;28;20041;-74
2023/08/09 00:45:32;;;;;;;8.20;6.70;;;;;;;14.66;100.00;100088.91;5041623;28;20091;-75
2023/08/09 00:48:01;;;;;;;12.43;7.47;;;;;;;14.68;100.00;100093.19;5038463;28;20527;-75
2023/08/09 00:50:30;;;;;;;11.50;7.15;;;;;;;14.74;100.00;100097.25;5041109;28;20050;-75
2023/08/09 00:52:59;;;;;;;10.13;7.22;;;;;;;14.76;100.00;100095.34;5035362;28;20114;-74
2023/08/09 00:55:27;;;;;;;9.90;7.07;;;;;;;14.84;100.00;100103.66;5053502;28;20045;-75
2023/08/09 00:57:56;;;;;;;11.48;7.13;;;;;;;14.87;100.00;100091.91;5050002;28;20037;-74
2023/08/09 01:00:25;;;;;;;10.85;6.65;;;;;;;14.86;100.00;100075.06;5046704;28;20049;-73
2023/08/09 01:02:54;;;;;;;13.30;6.53;;;;;;;14.87;100.00;100075.91;5054440;28;20049;-76
2023/08/09 01:05:33;;;;;;;10.80;6.47;;;;;;;14.90;100.00;100084.56;5031653;28;20530;-75
2023/08/09 01:08:13;;;;;;;10.95;7.13;;;;;;;14.89;100.00;100071.34;5044736;28;20051;-75
2023/08/09 01:10:47;;;;;;;8.60;6.10;;;;;;;14.85;100.00;100068.03;5041975;28;20033;-74
2023/08/09 01:13:19;;;;;;;8.77;6.13;;;;;;;14.79;100.00;100071.13;5040933;28;20041;-74
2023/08/09 01:15:51;;;;;;;11.88;6.95;;;;;;;14.78;100.00;100096.09;5055143;28;20077;-73
2023/08/09 01:18:20;;;;;;;12.00;7.35;;;;;;;14.68;100.00;100079.00;5049311;28;20052;-75
2023/08/09 01:20:50;;;;;;;9.85;7.97;;;;;;;14.62;100.00;100087.44;5038908;28;20073;-75
2023/08/09 01:23:20;;;;;;;9.50;7.28;;;;;;;14.56;100.00;100078.03;5025281;28;20053;-75
2023/08/09 01:25:49;;;;;;;11.53;7.40;;;;;;;14.66;100.00;100084.44;5052878;28;20402;-74
2023/08/09 01:28:17;;;;;;;11.50;8.00;;;;;;;14.65;100.00;100090.72;5041968;28;20033;-75
2023/08/09 01:30:47;;;;;;;10.18;8.23;;;;;;;14.63;100.00;100105.13;5038052;28;20076;-74
2023/08/09 01:33:18;;;;;;;12.30;8.15;;;;;;;14.59;100.00;100091.16;5006487;28;20057;-75
2023/08/09 01:35:54;;;;;;;11.73;7.95;;;;;;;14.63;100.00;100081.16;5025927;28;20055;-76
2023/08/09 01:38:26;;;;;;;13.07;8.10;;;;;;;14.62;100.00;100076.78;5037148;28;20052;-75
2023/08/09 01:40:56;;;;;;;11.90;8.30;;;;;;;14.63;100.00;100082.00;5039678;28;20046;-73
2023/08/09 01:43:25;;;;;;;12.85;8.55;;;;;;;14.61;100.00;100094.56;5035777;28;20052;-73
2023/08/09 01:45:53;;;;;;;13.00;8.50;;;;;;;14.52;100.00;100097.84;5012068;28;20186;-74
2023/08/09 01:48:22;;;;;;;12.23;9.05;;;;;;;14.52;100.00;100102.31;5046018;28;20099;-74
2023/08/09 01:50:50;;;;;;;16.60;10.13;;;;;;;14.49;100.00;100103.38;5027348;28;20136;-75
2023/08/09 01:53:20;;;;;;;15.18;9.35;;;;;;;14.46;100.00;100097.44;5054628;28;20539;-76
2023/08/09 01:55:48;;;;;;;15.90;10.00;;;;;;;14.43;100.00;100087.84;5041363;28;20051;-75
2023/08/09 01:58:18;;;;;;;17.13;10.43;;;;;;;14.50;100.00;100093.56;5027562;28;20154;-76
2023/08/09 02:00:47;;;;;;;13.52;10.25;;;;;;;14.54;100.00;100092.41;5035198;28;20064;-75
2023/08/09 02:03:15;;;;;;;13.25;10.65;;;;;;;14.52;100.00;100086.34;5055187;28;20048;-75
2023/08/09 02:05:43;;;;;;;13.38;10.35;;;;;;;14.44;100.00;100070.91;5039322;28;20044;-74
2023/08/09 02:08:12;;;;;;;14.85;11.02;;;;;;;14.48;100.00;100079.53;5037775;28;20065;-73
2023/08/09 02:10:41;;;;;;;15.25;11.63;;;;;;;14.48;100.00;100082.19;5033396;28;20037;-73
2023/08/09 02:13:09;;;;;;;14.13;11.65;;;;;;;14.45;100.00;100069.94;5036257;28;20123;-73
2023/08/09 02:15:41;;;;;;;17.80;11.57;;;;;;;14.53;100.00;100072.91;5039139;28;20048;-73
2023/08/09 02:18:18;;;;;;;15.40;10.52;;;;;;;14.60;100.00;100074.22;5028121;28;20095;-73
2023/08/09 02:20:48;;;;;;;16.02;10.25;;;;;;;14.67;100.00;100078.16;5037501;28;20067;-75
2023/08/09 02:23:16;;;;;;;18.20;12.07;;;;;;;14.69;100.00;100091.38;5035398;28;20041;-74
2023/08/09 02:25:45;;;;;;;13.73;10.50;;;;;;;14.65;100.00;100085.38;5040739;28;20044;-75
2023/08/09 02:28:13;;;;;;;17.05;10.98;;;;;;;14.68;100.00;100095.00;5028070;28;20042;-75
2023/08/09 02:30:43;;;;;;;16.08;11.77;;;;;;;14.69;100.00;100089.56;5047111;28;20571;-74
2023/08/09 02:33:12;;;;;;;18.33;11.57;;;;;;;14.68;100.00;100079.84;5037649;28;20045;-74
2023/08/09 02:35:54;;;;;;;14.57;10.75;;;;;;;14.69;100.00;100081.56;5034489;28;20057;-75
2023/08/09 02:38:24;;;;;;;15.57;10.80;;;;;;;14.72;100.00;100085.84;5043702;28;20468;-75
2023/08/09 02:40:54;;;;;;;16.73;10.90;;;;;;;14.75;100.00;100077.63;5016589;28;20053;-74
2023/08/09 02:43:23;;;;;;;15.55;11.15;;;;;;;14.74;100.00;100070.59;5016638;28;20091;-74
2023/08/09 02:45:56;;;;;;;13.82;10.38;;;;;;;14.63;100.00;100078.50;5049882;28;20061;-75
2023/08/09 02:48:25;;;;;;;15.68;10.55;;;;;;;14.67;100.00;100078.16;5039062;28;20056;-74
2023/08/09 02:50:55;;;;;;;14.48;10.90;;;;;;;14.72;100.00;100072.50;5025856;28;20045;-73
2023/08/09 02:53:27;;;;;;;15.23;10.63;;;;;;;14.72;100.00;100068.03;5016040;28;20053;-74
2023/08/09 02:55:56;;;;;;;16.70;11.05;;;;;;;14.73;100.00;100069.75;5039743;28;20068;-74
2023/08/09 02:58:24;;;;;;;15.02;10.80;;;;;;;14.69;100.00;100068.25;5044362;28;20131;-74
2023/08/09 03:00:54;;;;;;;14.00;9.70;;;;;;;14.58;100.00;100048.63;5024671;28;20049;-74
2023/08/09 03:03:21;;;;;;;12.90;9.70;;;;;;;14.70;100.00;100061.09;5044364;28;20056;-74
2023/08/09 03:05:50;;;;;;;15.38;10.52;;;;;;;14.74;100.00;100059.94;5060353;28;20544;-73
2023/08/09 03:08:18;;;;;;;14.52;10.80;;;;;;;14.69;100.00;100073.56;5060987;28;20040;-74
2023/08/09 03:10:46;;;;;;;14.55;10.50;;;;;;;14.62;100.00;100074.13;5049382;28;20055;-73
2023/08/09 03:13:16;;;;;;;12.55;10.32;;;;;;;14.61;100.00;100075.94;5020711;28;20723;-75
2023/08/09 03:15:45;;;;;;;15.23;10.80;;;;;;;14.65;100.00;100073.88;5041881;28;20990;-74
2023/08/09 03:18:14;;;;;;;14.70;10.43;;;;;;;14.68;100.00;100073.66;5041720;28;20037;-75
2023/08/09 03:20:44;;;;;;;16.23;11.10;;;;;;;14.69;100.00;100078.03;5036886;28;20047;-75
2023/08/09 03:23:13;;;;;;;18.83;11.18;;;;;;;14.74;100.00;100084.78;5032235;28;20103;-75
2023/08/09 03:25:42;;;;;;;14.90;10.90;;;;;;;14.77;100.00;100086.38;5034211;28;20055;-73
2023/08/09 03:28:12;;;;;;;14.20;10.98;;;;;;;14.79;100.00;100081.81;5031838;28;20080;-75
2023/08/09 03:30:42;;;;;;;16.02;11.07;;;;;;;14.83;100.00;100083.28;5018125;28;20045;-75
2023/08/09 03:33:11;;;;;;;17.92;11.63;;;;;;;14.85;100.00;100084.03;5044141;28;20033;-76
2023/08/09 03:35:44;;;;;;;13.35;11.20;;;;;;;14.88;100.00;100083.81;5058854;28;20041;-77
2023/08/09 03:38:13;;;;;;;15.63;11.02;;;;;;;14.89;100.00;100087.34;5031386;28;20113;-74
2023/08/09 03:40:41;;;;;;;14.05;10.63;;;;;;;14.89;100.00;100087.34;5054107;28;20076;-75
2023/08/09 03:43:09;;;;;;;15.13;10.50;;;;;;;14.74;100.00;100070.59;5045361;28;20322;-76
2023/08/09 03:45:37;;;;;;;18.52;11.23;;;;;;;14.90;100.00;100097.03;5065409;28;20068;-76
2023/08/09 03:48:07;;;;;;;12.77;9.90;;;;;;;14.89;100.00;100096.19;5036557;28;20049;-75
2023/08/09 03:50:37;;;;;;;12.50;10.25;;;;;;;14.82;100.00;100078.03;5038249;28;20041;-74
2023/08/09 03:53:07;;;;;;;14.98;10.05;;;;;;;14.82;100.00;100078.03;5045291;28;20056;-75
2023/08/09 03:55:38;;;;;;;13.60;10.18;;;;;;;14.87;100.00;100091.91;5045806;28;20044;-75
2023/08/09 03:58:07;;;;;;;16.65;10.27;;;;;;;14.87;100.00;100091.91;5053556;28;20053;-75
2023/08/09 04:00:36;;;;;;;16.38;10.50;;;;;;;14.96;100.00;100100.13;5055986;28;20091;-75
2023/08/09 04:03:04;;;;;;;15.02;9.88;;;;;;;14.94;100.00;100093.22;5037954;28;20145;-75
2023/08/09 04:05:34;;;;;;;12.18;10.07;;;;;;;14.94;100.00;100107.41;5054263;28;20080;-75
2023/08/09 04:08:04;;;;;;;15.88;9.73;;;;;;;14.95;100.00;100109.06;5051286;28;20041;-75
2023/08/09 04:10:35;;;;;;;13.82;9.07;;;;;;;14.90;100.00;100097.03;5045798;28;20068;-74
2023/08/09 04:13:04;;;;;;;15.55;9.93;;;;;;;14.90;100.00;100099.72;5034300;28;20059;-74
2023/08/09 04:15:32;;;;;;;14.10;10.38;;;;;;;14.86;100.00;100101.72;5039162;28;20207;-75
2023/08/09 04:18:00;;;;;;;14.38;10.18;;;;;;;14.76;100.00;100091.81;5051347;28;20056;-74
2023/08/09 04:20:28;;;;;;;15.35;10.32;;;;;;;14.73;100.00;100099.06;5019235;28;20050;-75
2023/08/09 04:22:58;;;;;;;12.57;9.70;;;;;;;14.75;100.00;100098.97;5050945;28;20072;-74
2023/08/09 04:25:26;;;;;;;12.73;10.45;;;;;;;14.78;100.00;100106.75;5042828;28;20013;-75
2023/08/09 04:27:56;;;;;;;14.85;10.48;;;;;;;14.76;100.00;100108.66;5056286;28;20121;-75
2023/08/09 04:30:24;;;;;;;13.35;9.20;;;;;;;14.71;100.00;100102.78;5055105;28;20033;-75
2023/08/09 04:32:53;;;;;;;10.05;8.38;;;;;;;14.73;100.00;100101.72;5053458;28;20049;-75
2023/08/09 04:35:21;;;;;;;12.35;9.43;;;;;;;14.73;100.00;100106.19;5053976;28;20048;-75
2023/08/09 04:37:49;;;;;;;13.30;9.15;;;;;;;14.75;100.00;100109.63;5062951;28;20045;-75
2023/08/09 04:40:17;;;;;;;10.10;8.48;;;;;;;14.75;100.00;100109.63;5068032;28;20042;-75
2023/08/09 04:42:47;;;;;;;13.82;9.45;;;;;;;14.74;100.00;100121.25;5050747;28;20033;-75
2023/08/09 04:45:17;;;;;;;11.95;7.85;;;;;;;14.76;100.00;100105.16;5068852;28;20022;-75
2023/08/09 04:47:44;;;;;;;10.90;8.23;;;;;;;14.79;100.00;100111.13;5065892;28;20029;-75
2023/08/09 04:50:12;;;;;;;11.98;8.52;;;;;;;14.79;100.00;100110.28;5067925;28;20076;-75
2023/08/09 04:52:42;;;;;;;13.05;7.90;;;;;;;14.81;100.00;100113.66;5055079;28;20060;-76
2023/08/09 04:55:10;;;;;;;12.88;8.50;;;;;;;14.90;100.00;100116.56;5060059;28;20093;-74
2023/08/09 04:57:40;;;;;;;11.15;8.27;;;;;;;14.95;100.00;100117.06;5055096;28;20041;-75
2023/08/09 05:00:11;;;;;;;11.20;7.68;;;;;;;14.92;100.00;100117.31;5083348;28;20037;-77
2023/08/09 05:02:43;;;;;;;12.30;7.90;;;;;;;15.00;100.00;100133.63;5064441;28;20048;-76
2023/08/09 05:05:12;;;;;;;12.15;7.80;;;;;;;14.98;100.00;100118.69;5065711;28;20084;-76
2023/08/09 05:07:40;;;;;;;14.25;8.63;;;;;;;15.02;100.00;100125.50;5064940;28;20080;-76
2023/08/09 05:10:11;;;;;;;11.48;7.85;;;;;;;15.06;100.00;100125.19;5067695;28;20026;-76
2023/08/09 05:12:39;;;;;;;12.90;8.10;;;;;;;15.06;100.00;100127.88;5061628;28;20056;-77
2023/08/09 05:15:08;;;;;;;12.90;7.68;;;;;;;15.03;100.00;100120.06;5061010;28;20030;-74
2023/08/09 05:17:36;;;;;;;9.20;7.90;;;;;;;15.02;100.00;100126.38;5069016;28;20056;-75
2023/08/09 05:20:10;;;;;;;13.43;8.38;;;;;;;15.03;100.00;100133.41;5073564;28;20041;-74
2023/08/09 05:22:38;;;;;;;12.55;8.32;;;;;;;15.03;100.00;100136.06;5066411;28;20041;-74
2023/08/09 05:25:08;;;;;;;11.52;8.30;;;;;;;15.03;100.00;100145.88;5037677;28;20049;-74
2023/08/09 05:27:36;;;;;;;11.82;6.88;;;;;;;15.02;100.00;100147.69;5052453;28;20044;-74
2023/08/09 05:30:05;;;;;;;12.60;7.85;;;;;;;15.04;100.00;100145.78;5045441;28;20041;-74
2023/08/09 05:32:34;;;;;;;13.45;8.63;;;;;;;15.04;100.00;100147.59;5040942;28;20065;-75
2023/08/09 05:35:05;;;;;;;12.27;8.18;;;;;;;15.05;100.00;100155.50;5042884;28;20044;-75
2023/08/09 05:37:35;;;;;;;12.18;8.50;;;;;;;15.06;100.00;100151.00;5049326;28;20054;-73
2023/08/09 05:40:03;;;;;;;15.18;8.73;;;;;;;15.01;100.00;100142.47;5035531;28;20053;-75
2023/08/09 05:42:31;;;;;;;12.07;8.15;;;;;;;15.04;100.00;100143.13;5031307;28;20053;-74
2023/08/09 05:45:00;;;;;;;12.38;8.13;;;;;;;15.08;100.00;100155.28;5046797;28;20052;-74
2023/08/09 05:47:28;;;;;;;14.15;8.07;;;;;;;15.08;100.00;100157.97;5034148;28;20502;-75
2023/08/09 05:49:56;;;;;;;8.98;7.22;;;;;;;15.06;100.00;100151.00;5048344;28;20500;-75
2023/08/09 05:52:25;;;;;;;10.98;7.88;;;;;;;15.07;100.00;100158.91;5045367;28;20501;-75
2023/08/09 05:54:53;;;;;;;9.88;7.47;;;;;;;15.15;100.00;100160.19;5057559;28;20045;-74
2023/08/09 05:57:23;;;;;;;12.48;7.47;;;;;;;15.15;100.00;100155.69;5040177;28;20058;-74
2023/08/09 05:59:52;;;;;;;12.88;8.13;;;;;;;15.13;100.00;100151.44;5036525;28;20034;-75
2023/08/09 06:02:20;;;;;;;9.15;6.95;;;;;;;15.18;100.00;100160.81;5051954;28;20045;-75
2023/08/09 06:04:48;;;;;;;9.27;7.25;;;;;;;15.22;100.00;100164.13;5046894;28;20053;-75
2023/08/09 06:07:17;;;;;;;9.43;7.07;;;;;;;15.13;100.00;100144.28;5054324;28;20043;-77
2023/08/09 06:09:46;;;;;;;11.80;7.40;;;;;;;15.28;100.00;100166.34;5058744;28;20053;-74
2023/08/09 06:12:15;;;;;;;11.25;8.05;;;;;;;15.29;100.00;100163.59;5070570;28;20052;-75
2023/08/09 06:14:44;;;;;;;10.45;7.47;;;;;;;15.30;100.00;100154.63;5058661;28;20041;-75
2023/08/09 06:17:14;;;;;;;10.75;7.47;;;;;;;15.44;100.00;100172.31;5061300;28;20032;-75
2023/08/09 06:19:42;;;;;;;10.82;7.47;;;;;;;15.46;100.00;100175.75;5055228;28;20029;-75
2023/08/09 06:22:10;;;;;;;8.40;6.57;;;;;;;15.44;100.00;100172.31;5050891;28;20048;-74
2023/08/09 06:24:38;;;;;;;10.98;7.47;;;;;;;15.46;100.00;100186.41;5048363;28;20064;-74
2023/08/09 06:27:08;;;;;;;9.65;7.50;;;;;;;15.48;100.00;100191.66;5051218;28;20056;-73
2023/08/09 06:29:38;;;;;;;11.43;7.78;;;;;;;15.43;100.00;100187.47;5060088;28;20064;-73
2023/08/09 06:32:07;;;;;;;15.75;8.18;;;;;;;15.46;100.00;100197.09;5051354;28;20042;-75
2023/08/09 06:34:36;;;;;;;13.10;7.82;;;;;;;15.35;100.00;100184.50;5058224;28;20041;-75
2023/08/09 06:37:04;;;;;;;14.63;8.40;;;;;;;15.51;100.00;100210.13;5058382;28;20045;-73
2023/08/09 06:39:33;;;;;;;12.20;8.20;;;;;;;15.47;100.00;100212.16;5050472;28;20052;-74
2023/08/09 06:42:03;;;;;;;;;;;;;;;15.45;100.00;100214.06;5019546;28;20072;-75
2023/08/09 06:44:36;;;;;;;12.48;8.55;;;;;;;15.33;100.00;100214.91;5048405;28;19928;-74
2023/08/09 06:47:04;;;;;;;9.85;6.72;;;;;;;15.47;100.00;100241.50;5053162;28;20064;-74
2023/08/09 06:49:33;;;;;;;3.47;2.88;;;;;;;15.35;100.00;100247.69;5037212;28;20057;-75
2023/08/09 06:52:01;;;;;;;3.72;1.30;;;;;;;15.10;100.00;100253.88;5023931;28;20045;-75
2023/08/09 06:54:30;;;;;;;0.70;0.70;;;;;;;14.80;100.00;100248.75;5021040;28;20416;-75
2023/08/09 06:56:57;;;;;;;0.98;0.50;;;;;;;14.57;100.00;100244.09;5033144;28;20059;-74
2023/08/09 06:59:25;;;;;;;0.95;0.47;;;;;;;14.48;100.00;100264.19;5038521;28;20049;-73
2023/08/09 07:01:56;;;;;;;0.50;0.40;;;;;;;14.38;100.00;100263.06;5038807;28;20041;-75
2023/08/09 07:04:25;;;;;;;1.10;0.40;;;;;;;14.27;100.00;100271.75;5031110;28;20145;-75
2023/08/09 07:06:54;;;;;;;0.38;0.38;;;;;;;14.24;100.00;100282.59;5040934;28;20049;-73
2023/08/09 07:09:22;;;;;;;1.50;0.30;;;;;;;14.19;100.00;100286.50;5050146;28;20037;-76
2023/08/09 07:11:50;;;;;;;0.90;0.30;;;;;;;14.18;100.00;100282.97;5039122;28;20041;-76
2023/08/09 07:14:19;;;;;;;0.22;0.22;;;;;;;14.05;100.00;100264.25;5044725;28;20056;-75
2023/08/09 07:16:48;;;;;;;5.57;0.40;;;;;;;14.15;100.00;100280.53;5049942;28;20041;-75
2023/08/09 07:19:21;;;;;;;0.75;0.35;;;;;;;14.13;100.00;100282.44;5045090;28;20045;-75
2023/08/09 07:21:49;;;;;;;1.45;0.43;;;;;;;14.22;100.00;100283.66;5025155;28;20041;-75
2023/08/09 07:24:17;;;;;;;1.42;0.55;;;;;;;14.22;100.00;100284.50;5031799;28;20053;-76
2023/08/09 07:26:45;;;;;;;1.00;0.40;;;;;;;14.26;100.00;100285.16;5040609;28;20049;-75
2023/08/09 07:29:13;;;;;;;2.80;0.70;;;;;;;14.22;100.00;100280.97;5054966;28;20114;-75
2023/08/09 07:31:42;;;;;;;3.20;0.70;;;;;;;14.35;100.00;100292.56;5059808;28;20049;-76
2023/08/09 07:34:12;;;;;;;0.40;0.40;;;;;;;14.50;100.00;100296.06;5064468;28;20029;-76
2023/08/09 07:36:42;;;;;;;1.42;0.73;;;;;;;14.61;100.00;100298.91;5065206;28;20067;-76
2023/08/09 07:39:10;;;;;;;1.40;0.60;;;;;;;14.70;100.00;100300.97;5057441;28;20048;-76
2023/08/09 07:41:38;;;;;;;0.98;0.70;;;;;;;14.65;100.00;100285.28;5039271;28;20100;-75
2023/08/09 07:44:07;;;;;;;1.05;0.75;;;;;;;14.76;100.00;100291.72;5062422;28;20506;-75
2023/08/09 07:46:35;;;;;;;1.73;0.65;;;;;;;14.87;100.00;100302.53;5058843;28;20048;-75
2023/08/09 07:49:04;;;;;;;1.25;0.70;;;;;;;14.95;100.00;100309.06;5044078;28;20065;-75
2023/08/09 07:51:32;;;;;;;1.15;0.55;;;;;;;14.94;100.00;100317.19;5049005;28;20051;-75
2023/08/09 07:54:11;;;;;;;0.50;0.50;;;;;;;14.88;100.00;100318.44;5046123;28;20243;-76
2023/08/09 07:56:46;;;;;;;1.27;0.40;;;;;;;14.54;100.00;100276.28;5051030;28;20100;-75
2023/08/09 07:59:14;;;;;;;0.90;0.70;;;;;;;14.78;100.00;100330.66;5056308;28;20045;-74
2023/08/09 08:01:42;;;;;;;1.27;0.70;;;;;;;14.71;100.00;100330.19;5055437;28;20048;-75
2023/08/09 08:04:10;;;;;;;2.15;0.40;;;;;;;14.71;100.00;100326.66;5047933;28;20389;-76
2023/08/09 08:06:41;;;;;;;1.42;0.90;;;;;;;14.81;100.00;100345.56;5052775;28;20048;-76
2023/08/09 08:09:13;;;;;;;2.65;1.65;;;;;;;14.78;100.00;100338.66;5058142;28;20044;-76
2023/08/09 08:11:43;;;;;;;1.13;0.70;;;;;;;14.75;100.00;100341.53;5052874;28;20040;-75
2023/08/09 08:14:11;;;;;;;1.58;0.70;;;;;;;14.71;100.00;100343.53;5052842;28;20041;-74
2023/08/09 08:16:43;;;;;;;0.85;0.80;;;;;;;14.81;100.00;100362.44;5047090;28;20316;-77
2023/08/09 08:19:11;;;;;;;0.90;0.57;;;;;;;14.81;100.00;100375.75;5050759;28;20068;-76
2023/08/09 08:21:40;;;;;;;1.58;0.70;;;;;;;14.69;100.00;100355.22;5037771;28;20116;-76
2023/08/09 08:24:09;;;;;;;2.75;0.90;;;;;;;14.82;100.00;100381.94;5040863;28;20051;-75
2023/08/09 08:26:39;;;;;;;2.47;0.77;;;;;;;14.83;100.00;100375.66;5037168;28;20041;-75
2023/08/09 08:29:07;;;;;;;1.25;0.80;;;;;;;14.88;100.00;100378.88;5051627;28;20105;-76
2023/08/09 08:31:36;;;;;;;1.02;0.80;;;;;;;14.93;100.00;100382.13;5050843;28;20029;-75
2023/08/09 08:34:06;;;;;;;1.13;0.90;;;;;;;14.94;100.00;100382.03;5076615;28;20123;-77
2023/08/09 08:36:34;;;;;;;3.00;1.10;;;;;;;14.93;100.00;100379.47;5061851;28;20247;-75
2023/08/09 08:39:11;;;;;;;1.27;0.88;;;;;;;14.99;100.00;100384.38;5031961;28;20102;-75
2023/08/09 08:41:41;;;;;;;1.20;0.95;;;;;;;15.10;100.00;100387.22;5040100;28;20030;-74
2023/08/09 08:44:11;;;;;;;0.95;0.82;;;;;;;14.92;100.00;100356.41;5045067;28;20025;-74
2023/08/09 08:46:39;;;;;;;1.52;0.80;;;;;;;15.23;100.00;100387.25;5062778;28;20037;-75
2023/08/09 08:49:13;;;;;;;1.63;0.65;;;;;;;15.44;100.00;100385.81;5052662;28;20051;-76
2023/08/09 08:51:44;;;;;;;2.25;0.80;;;;;;;15.71;100.00;100381.31;5053376;28;20053;-74
2023/08/09 08:54:14;;;;;;;1.17;1.05;;;;;;;15.94;100.00;100381.53;5059066;28;20037;-75
2023/08/09 08:56:44;;;;;;;;;;;;;;;16.14;100.00;100384.53;5049428;28;20040;-75
2023/08/09 08:59:12;;;;;;;2.45;0.95;;;;;;;16.30;100.00;100389.66;5056701;28;20027;-75
2023/08/09 09:01:44;;;;;;;1.05;0.98;;;;;;;16.37;100.00;100376.72;5039213;28;20045;-74
2023/08/09 09:04:13;;;;;;;1.08;0.90;;;;;;;16.51;100.00;100383.75;5055913;28;20057;-76
2023/08/09 09:06:41;;;;;;;2.25;1.02;;;;;;;16.71;100.00;100385.84;5053614;28;20045;-76
2023/08/09 09:09:13;;;;;;;1.15;1.00;;;;;;;16.95;100.00;100377.88;5052788;28;20033;-75
2023/08/09 09:11:43;;;;;;;1.15;0.90;;;;;;;17.12;100.00;100381.00;5058635;28;20045;-77
2023/08/09 09:14:13;;;;;;;1.92;1.02;;;;;;;17.18;100.00;100383.22;5058137;28;20096;-76
2023/08/09 09:16:42;;;;;;;1.25;0.90;;;;;;;17.20;100.00;100380.44;5057253;28;20060;-77
2023/08/09 09:19:11;;;;;;;0.98;0.80;;;;;;;17.31;100.00;100385.84;5053775;28;20552;-75
2023/08/09 09:21:45;;;;;;;1.98;0.80;;;;;;;17.32;100.00;100392.03;5043796;28;20099;-75
2023/08/09 09:24:13;;;;;;;1.58;0.70;;;;;;;17.22;100.00;100399.91;5057876;28;20045;-75
2023/08/09 09:26:53;;;;;;;2.22;0.60;;;;;;;17.11;100.00;100398.03;5041652;28;20062;-74
2023/08/09 09:29:33;;;;;;;0.73;0.73;;;;;;;17.00;100.00;100397.94;5047909;28;20055;-78
2023/08/09 09:32:07;;;;;;;3.25;1.00;;;;;;;16.94;100.00;100385.03;5046003;28;20517;-76
2023/08/09 09:34:37;;;;;;;1.42;0.70;;;;;;;16.97;100.00;100382.16;5055682;28;20037;-76
2023/08/09 09:37:04;;;;;;;1.77;0.98;;;;;;;16.89;100.00;100378.31;5053164;28;20076;-73
2023/08/09 09:39:32;;;;;;;0.98;0.77;;;;;;;16.87;100.00;100383.78;5045807;28;20044;-74
2023/08/09 09:42:00;;;;;;;3.33;0.90;;;;;;;16.81;100.00;100377.06;5054658;28;20268;-75
2023/08/09 09:44:30;;;;;;;2.10;0.93;;;;;;;16.68;100.00;100380.75;5065713;28;20073;-75
2023/08/09 09:47:01;;;;;;;1.70;0.77;;;;;;;16.74;100.00;100382.97;5059874;28;20062;-80
2023/08/09 09:49:34;;;;;;;1.85;0.90;;;;;;;16.81;100.00;100397.59;5052198;28;20033;-76
2023/08/09 09:52:04;;;;;;;2.15;0.80;;;;;;;16.84;100.00;100381.34;5058695;28;20045;-75
2023/08/09 09:54:35;;;;;;;4.87;1.10;;;;;;;16.99;100.00;100390.91;5052172;28;20060;-80
2023/08/09 09:57:03;;;;;;;2.83;1.10;;;;;;;16.97;100.00;100395.53;5053545;28;20468;-76
2023/08/09 09:59:33;;;;;;;1.85;0.80;;;;;;;17.13;100.00;100396.09;5073618;28;20041;-76
2023/08/09 10:02:03;;;;;;;1.02;0.80;;;;;;;17.27;100.00;100394.22;5059921;28;20041;-76
2023/08/09 10:04:32;;;;;;;1.45;0.88;;;;;;;17.12;100.00;100389.03;5045956;28;20053;-76
2023/08/09 10:07:05;;;;;;;1.77;1.07;;;;;;;16.99;100.00;100395.41;5050444;28;20075;-75
2023/08/09 10:09:33;;;;;;;1.60;0.75;;;;;;;16.96;100.00;100390.28;5057898;28;20040;-77
2023/08/09 10:12:07;;;;;;;0.98;0.82;;;;;;;16.99;100.00;100403.44;5052627;28;20333;-75
2023/08/09 10:14:37;;;;;;;3.60;0.90;;;;;;;17.02;100.00;100400.50;5056229;28;20160;-76
2023/08/09 10:17:05;;;;;;;1.30;1.00;;;;;;;16.92;100.00;100403.03;5043581;28;20063;-76
2023/08/09 10:19:43;;;;;;;7.03;1.25;;;;;;;16.78;100.00;100403.19;5052074;28;20044;-75
2023/08/09 10:22:13;;;;;;;1.25;1.08;;;;;;;16.71;100.00;100401.91;5050712;28;20056;-74
2023/08/09 10:24:44;;;;;;;1.25;0.90;;;;;;;16.81;100.00;100406.50;5035996;28;20065;-75
2023/08/09 10:27:12;;;;;;;1.05;0.80;;;;;;;17.01;100.00;100409.50;5037543;28;20041;-70
2023/08/09 10:29:42;;;;;;;1.52;0.90;;;;;;;17.18;100.00;100401.94;5037217;28;20041;-70
2023/08/09 10:32:10;;;;;;;1.58;0.88;;;;;;;17.31;100.00;100412.63;5034085;28;20048;-70
2023/08/09 10:34:41;;;;;;;2.17;0.90;;;;;;;17.39;100.00;100402.19;5037419;28;20056;-70
2023/08/09 10:37:23;;;;;;;1.63;0.82;;;;;;;17.47;100.00;100415.00;5026240;28;20053;-72
2023/08/09 10:40:15;;;;;;;1.52;0.80;;;;;;;17.62;100.00;100415.66;5051638;28;20046;-75
2023/08/09 10:42:46;;;;;;;3.28;0.95;;;;;;;17.77;100.00;100412.69;5059990;28;20033;-73
2023/08/09 10:45:15;;;;;;;;;;;;;;;17.94;100.00;100416.78;5043273;28;20068;-73
2023/08/09 10:47:43;;;;;;;2.05;1.05;;;;;;;18.06;100.00;100420.31;5054345;28;20087;-73
2023/08/09 10:50:15;;;;;;;1.50;1.23;;;;;;;18.16;100.00;100414.13;5039248;28;20099;-74
2023/08/09 10:52:48;;;;;;;2.33;1.08;;;;;;;18.45;100.00;100416.31;5044521;28;20026;-75
2023/08/09 10:55:26;;;;;;;3.13;0.88;;;;;;;18.70;100.00;100420.63;5062227;28;20037;-74
2023/08/09 10:57:56;;;;;;;2.20;1.00;;;;;;;18.89;100.00;100416.31;5060144;28;20049;-76
2023/08/09 11:00:26;;;;;;;1.88;0.93;;;;;;;19.02;100.00;100429.63;5059058;28;20265;-72
2023/08/09 11:03:00;;;;;;;1.48;0.70;;;;;;;19.12;100.00;100417.13;5066573;28;20073;-73
2023/08/09 11:05:29;;;;;;;1.48;0.70;;;;;;;19.23;100.00;100411.72;5042036;28;20057;-77
2023/08/09 11:08:10;;;;;;;2.58;1.00;;;;;;;19.17;100.00;100425.69;5030112;28;20144;-78
2023/08/09 11:10:44;;;;;;;4.43;1.83;;;;;;;19.08;100.00;100420.19;5059914;28;20059;-78
2023/08/09 11:13:14;;;;;;;1.03;0.60;;;;;;;18.79;100.00;100399.28;5042740;28;20038;-72
2023/08/09 11:15:45;;;;;;;;;;;;;;;19.10;100.00;100429.81;5036457;28;20467;-75
2023/08/09 11:18:13;;;;;;;1.95;0.77;;;;;;;19.25;99.62;100433.94;5023501;28;19921;-75
2023/08/09 11:20:44;;;;;;;2.03;0.80;;;;;;;19.35;100.00;100433.19;5039867;28;20045;-78
2023/08/09 11:23:15;;;;;;;2.63;0.90;;;;;;;19.48;99.66;100429.34;5052700;28;20041;-75